sensor_id;sensor_type;location;lat;lon;timestamp;P1;durP1;ratioP1;P2;durP2;ratioP2
7683;SDS011;3884;48.616;12.872;2023-08-24T00:00:22;5.83;;;5.30;;
7683;SDS011;3884;48.616;12.872;2023-08-24T00:02:49;7.20;;;5.30;;
7683;SDS011;3884;48.616;12.872;2023-08-24T00:05:16;5.30;;;4.80;;
7683;SDS011;3884;48.616;12.872;2023-08-24T00:07:42;7.00;;;5.27;;
7683;SDS011;3884;48.616;12.872;2023-08-24T00:10:09;6.43;;;5.20;;
7683;SDS011;3884;48.616;12.872;2023-08-24T00:12:36;5.47;;;4.97;;
7683;SDS011;3884;48.616;12.872;2023-08-24T00:15:07;7.80;;;4.97;;
7683;SDS011;3884;48.616;12.872;2023-08-24T00:17:35;6.67;;;5.07;;
7683;SDS011;3884;48.616;12.872;2023-08-24T00:20:03;6.30;;;4.97;;
7683;SDS011;3884;48.616;12.872;2023-08-24T00:22:35;6.40;;;5.20;;
7683;SDS011;3884;48.616;12.872;2023-08-24T00:25:03;6.20;;;5.40;;
7683;SDS011;3884;48.616;12.872;2023-08-24T00:27:31;6.47;;;4.80;;
7683;SDS011;3884;48.616;12.872;2023-08-24T00:29:58;6.87;;;5.03;;
7683;SDS011;3884;48.616;12.872;2023-08-24T00:32:26;5.53;;;5.03;;
7683;SDS011;3884;48.616;12.872;2023-08-24T00:34:55;7.90;;;5.40;;
7683;SDS011;3884;48.616;12.872;2023-08-24T00:37:22;6.57;;;5.17;;
7683;SDS011;3884;48.616;12.872;2023-08-24T00:39:49;6.33;;;5.07;;
7683;SDS011;3884;48.616;12.872;2023-08-24T00:42:16;6.80;;;4.77;;
7683;SDS011;3884;48.616;12.872;2023-08-24T00:44:43;6.60;;;4.87;;
7683;SDS011;3884;48.616;12.872;2023-08-24T00:47:10;5.33;;;4.70;;
7683;SDS011;3884;48.616;12.872;2023-08-24T00:49:39;5.67;;;4.90;;
7683;SDS011;3884;48.616;12.872;2023-08-24T00:52:06;5.23;;;4.73;;
7683;SDS011;3884;48.616;12.872;2023-08-24T00:54:34;5.87;;;5.30;;
7683;SDS011;3884;48.616;12.872;2023-08-24T00:57:03;5.10;;;4.70;;
7683;SDS011;3884;48.616;12.872;2023-08-24T00:59:30;5.30;;;4.80;;
7683;SDS011;3884;48.616;12.872;2023-08-24T01:01:57;5.07;;;4.57;;
7683;SDS011;3884;48.616;12.872;2023-08-24T01:04:25;5.60;;;5.13;;
7683;SDS011;3884;48.616;12.872;2023-08-24T01:06:53;5.97;;;5.33;;
7683;SDS011;3884;48.616;12.872;2023-08-24T01:09:20;6.07;;;5.57;;
7683;SDS011;3884;48.616;12.872;2023-08-24T01:11:49;5.77;;;5.10;;
7683;SDS011;3884;48.616;12.872;2023-08-24T01:14:30;6.63;;;5.03;;
7683;SDS011;3884;48.616;12.872;2023-08-24T01:17:04;7.03;;;5.60;;
7683;SDS011;3884;48.616;12.872;2023-08-24T01:19:37;6.30;;;5.53;;
7683;SDS011;3884;48.616;12.872;2023-08-24T01:22:15;6.10;;;4.90;;
7683;SDS011;3884;48.616;12.872;2023-08-24T01:24:53;7.70;;;4.97;;
7683;SDS011;3884;48.616;12.872;2023-08-24T01:27:27;7.70;;;5.37;;
7683;SDS011;3884;48.616;12.872;2023-08-24T01:29:56;5.80;;;5.20;;
7683;SDS011;3884;48.616;12.872;2023-08-24T01:32:24;6.73;;;5.20;;
7683;SDS011;3884;48.616;12.872;2023-08-24T01:34:51;6.67;;;5.20;;
7683;SDS011;3884;48.616;12.872;2023-08-24T01:37:18;6.00;;;5.20;;
7683;SDS011;3884;48.616;12.872;2023-08-24T01:39:46;9.33;;;4.90;;
7683;SDS011;3884;48.616;12.872;2023-08-24T01:42:19;5.63;;;5.20;;
7683;SDS011;3884;48.616;12.872;2023-08-24T01:44:50;5.47;;;4.93;;
7683;SDS011;3884;48.616;12.872;2023-08-24T01:47:20;6.80;;;5.60;;
7683;SDS011;3884;48.616;12.872;2023-08-24T01:49:49;5.47;;;4.83;;
7683;SDS011;3884;48.616;12.872;2023-08-24T01:52:17;6.20;;;5.63;;
7683;SDS011;3884;48.616;12.872;2023-08-24T01:54:44;5.67;;;5.17;;
7683;SDS011;3884;48.616;12.872;2023-08-24T01:57:11;5.80;;;5.30;;
7683;SDS011;3884;48.616;12.872;2023-08-24T01:59:38;6.87;;;5.50;;
7683;SDS011;3884;48.616;12.872;2023-08-24T02:02:06;6.30;;;5.53;;
7683;SDS011;3884;48.616;12.872;2023-08-24T02:04:33;5.70;;;5.13;;
7683;SDS011;3884;48.616;12.872;2023-08-24T02:07:01;6.27;;;5.70;;
7683;SDS011;3884;48.616;12.872;2023-08-24T02:09:28;6.03;;;5.33;;
7683;SDS011;3884;48.616;12.872;2023-08-24T02:11:55;5.90;;;5.30;;
7683;SDS011;3884;48.616;12.872;2023-08-24T02:14:22;7.90;;;5.63;;
7683;SDS011;3884;48.616;12.872;2023-08-24T02:16:49;5.50;;;5.07;;
7683;SDS011;3884;48.616;12.872;2023-08-24T02:19:17;5.40;;;4.87;;
7683;SDS011;3884;48.616;12.872;2023-08-24T02:21:44;5.97;;;5.37;;
7683;SDS011;3884;48.616;12.872;2023-08-24T02:24:11;6.67;;;4.97;;
7683;SDS011;3884;48.616;12.872;2023-08-24T02:26:37;6.73;;;5.53;;
7683;SDS011;3884;48.616;12.872;2023-08-24T02:29:04;5.60;;;5.00;;
7683;SDS011;3884;48.616;12.872;2023-08-24T02:31:31;8.83;;;5.47;;
7683;SDS011;3884;48.616;12.872;2023-08-24T02:33:58;6.83;;;5.03;;
7683;SDS011;3884;48.616;12.872;2023-08-24T02:36:26;6.63;;;5.10;;
7683;SDS011;3884;48.616;12.872;2023-08-24T02:38:53;6.20;;;5.60;;
7683;SDS011;3884;48.616;12.872;2023-08-24T02:41:20;7.00;;;5.50;;
7683;SDS011;3884;48.616;12.872;2023-08-24T02:43:47;8.33;;;5.73;;
7683;SDS011;3884;48.616;12.872;2023-08-24T02:46:14;8.30;;;5.50;;
7683;SDS011;3884;48.616;12.872;2023-08-24T02:48:41;8.50;;;5.67;;
7683;SDS011;3884;48.616;12.872;2023-08-24T02:51:08;7.97;;;4.97;;
7683;SDS011;3884;48.616;12.872;2023-08-24T02:53:37;6.33;;;5.73;;
7683;SDS011;3884;48.616;12.872;2023-08-24T02:56:04;5.10;;;4.60;;
7683;SDS011;3884;48.616;12.872;2023-08-24T02:58:31;6.37;;;5.77;;
7683;SDS011;3884;48.616;12.872;2023-08-24T03:00:58;7.67;;;5.70;;
7683;SDS011;3884;48.616;12.872;2023-08-24T03:03:25;9.20;;;6.10;;
7683;SDS011;3884;48.616;12.872;2023-08-24T03:05:54;6.80;;;5.97;;
7683;SDS011;3884;48.616;12.872;2023-08-24T03:08:22;6.60;;;6.00;;
7683;SDS011;3884;48.616;12.872;2023-08-24T03:10:50;7.27;;;6.00;;
7683;SDS011;3884;48.616;12.872;2023-08-24T03:13:17;7.57;;;5.93;;
7683;SDS011;3884;48.616;12.872;2023-08-24T03:15:44;6.50;;;5.70;;
7683;SDS011;3884;48.616;12.872;2023-08-24T03:18:11;5.87;;;5.27;;
7683;SDS011;3884;48.616;12.872;2023-08-24T03:20:39;5.97;;;4.80;;
7683;SDS011;3884;48.616;12.872;2023-08-24T03:23:06;5.73;;;5.23;;
7683;SDS011;3884;48.616;12.872;2023-08-24T03:25:35;7.17;;;5.47;;
7683;SDS011;3884;48.616;12.872;2023-08-24T03:28:05;6.97;;;5.20;;
7683;SDS011;3884;48.616;12.872;2023-08-24T03:30:32;6.57;;;5.97;;
7683;SDS011;3884;48.616;12.872;2023-08-24T03:32:59;6.00;;;5.50;;
7683;SDS011;3884;48.616;12.872;2023-08-24T03:35:28;6.13;;;5.33;;
7683;SDS011;3884;48.616;12.872;2023-08-24T03:37:55;6.77;;;5.20;;
7683;SDS011;3884;48.616;12.872;2023-08-24T03:40:23;6.63;;;5.97;;
7683;SDS011;3884;48.616;12.872;2023-08-24T03:42:50;5.67;;;5.07;;
7683;SDS011;3884;48.616;12.872;2023-08-24T03:45:19;7.33;;;5.53;;
7683;SDS011;3884;48.616;12.872;2023-08-24T03:47:46;6.03;;;5.53;;
7683;SDS011;3884;48.616;12.872;2023-08-24T03:50:13;6.30;;;5.70;;
7683;SDS011;3884;48.616;12.872;2023-08-24T03:52:40;7.20;;;6.43;;
7683;SDS011;3884;48.616;12.872;2023-08-24T03:55:08;6.00;;;5.40;;
7683;SDS011;3884;48.616;12.872;2023-08-24T03:57:36;6.10;;;5.60;;
7683;SDS011;3884;48.616;12.872;2023-08-24T04:00:04;6.10;;;5.50;;
7683;SDS011;3884;48.616;12.872;2023-08-24T04:02:40;7.63;;;5.30;;
7683;SDS011;3884;48.616;12.872;2023-08-24T04:05:10;5.87;;;5.23;;
7683;SDS011;3884;48.616;12.872;2023-08-24T04:07:37;7.77;;;5.73;;
7683;SDS011;3884;48.616;12.872;2023-08-24T04:10:05;6.43;;;5.30;;
7683;SDS011;3884;48.616;12.872;2023-08-24T04:12:33;5.50;;;4.90;;
7683;SDS011;3884;48.616;12.872;2023-08-24T04:14:59;5.73;;;5.23;;
7683;SDS011;3884;48.616;12.872;2023-08-24T04:17:27;6.40;;;5.70;;
7683;SDS011;3884;48.616;12.872;2023-08-24T04:19:55;7.47;;;6.20;;
7683;SDS011;3884;48.616;12.872;2023-08-24T04:22:22;6.77;;;5.63;;
7683;SDS011;3884;48.616;12.872;2023-08-24T04:24:49;8.13;;;5.30;;
7683;SDS011;3884;48.616;12.872;2023-08-24T04:27:16;5.87;;;5.27;;
7683;SDS011;3884;48.616;12.872;2023-08-24T04:29:43;8.53;;;5.33;;
7683;SDS011;3884;48.616;12.872;2023-08-24T04:32:10;6.27;;;5.67;;
7683;SDS011;3884;48.616;12.872;2023-08-24T04:34:36;7.47;;;5.63;;
7683;SDS011;3884;48.616;12.872;2023-08-24T04:37:05;7.33;;;5.47;;
7683;SDS011;3884;48.616;12.872;2023-08-24T04:39:32;9.10;;;6.27;;
7683;SDS011;3884;48.616;12.872;2023-08-24T04:41:58;6.13;;;5.63;;
7683;SDS011;3884;48.616;12.872;2023-08-24T04:44:27;6.03;;;5.53;;
7683;SDS011;3884;48.616;12.872;2023-08-24T04:46:54;6.83;;;5.37;;
7683;SDS011;3884;48.616;12.872;2023-08-24T04:49:21;6.50;;;5.57;;
7683;SDS011;3884;48.616;12.872;2023-08-24T04:51:47;8.90;;;5.87;;
7683;SDS011;3884;48.616;12.872;2023-08-24T04:54:16;7.23;;;6.03;;
7683;SDS011;3884;48.616;12.872;2023-08-24T04:56:43;7.37;;;6.60;;
7683;SDS011;3884;48.616;12.872;2023-08-24T04:59:09;6.83;;;6.23;;
7683;SDS011;3884;48.616;12.872;2023-08-24T05:01:36;10.47;;;7.50;;
7683;SDS011;3884;48.616;12.872;2023-08-24T05:04:05;8.13;;;6.90;;
7683;SDS011;3884;48.616;12.872;2023-08-24T05:06:32;7.23;;;6.47;;
7683;SDS011;3884;48.616;12.872;2023-08-24T05:08:59;6.93;;;6.30;;
7683;SDS011;3884;48.616;12.872;2023-08-24T05:11:27;7.33;;;6.67;;
7683;SDS011;3884;48.616;12.872;2023-08-24T05:13:55;6.90;;;6.20;;
7683;SDS011;3884;48.616;12.872;2023-08-24T05:16:22;8.50;;;7.70;;
7683;SDS011;3884;48.616;12.872;2023-08-24T05:18:49;10.03;;;8.30;;
7683;SDS011;3884;48.616;12.872;2023-08-24T05:21:16;8.90;;;8.00;;
7683;SDS011;3884;48.616;12.872;2023-08-24T05:23:43;8.70;;;7.90;;
7683;SDS011;3884;48.616;12.872;2023-08-24T05:26:10;10.37;;;8.30;;
7683;SDS011;3884;48.616;12.872;2023-08-24T05:28:38;9.13;;;7.30;;
7683;SDS011;3884;48.616;12.872;2023-08-24T05:31:05;8.40;;;7.60;;
7683;SDS011;3884;48.616;12.872;2023-08-24T05:33:32;8.00;;;7.30;;
7683;SDS011;3884;48.616;12.872;2023-08-24T05:35:59;7.20;;;6.53;;
7683;SDS011;3884;48.616;12.872;2023-08-24T05:38:26;8.90;;;6.67;;
7683;SDS011;3884;48.616;12.872;2023-08-24T05:40:52;7.90;;;6.50;;
7683;SDS011;3884;48.616;12.872;2023-08-24T05:43:19;8.17;;;7.30;;
7683;SDS011;3884;48.616;12.872;2023-08-24T05:45:48;6.93;;;6.27;;
7683;SDS011;3884;48.616;12.872;2023-08-24T05:48:16;10.20;;;6.70;;
7683;SDS011;3884;48.616;12.872;2023-08-24T05:50:43;8.13;;;6.73;;
7683;SDS011;3884;48.616;12.872;2023-08-24T05:53:10;9.17;;;8.00;;
7683;SDS011;3884;48.616;12.872;2023-08-24T05:55:38;9.00;;;7.57;;
7683;SDS011;3884;48.616;12.872;2023-08-24T05:58:05;7.87;;;7.07;;
7683;SDS011;3884;48.616;12.872;2023-08-24T06:00:32;9.73;;;7.10;;
7683;SDS011;3884;48.616;12.872;2023-08-24T06:03:01;7.73;;;7.03;;
7683;SDS011;3884;48.616;12.872;2023-08-24T06:05:29;7.83;;;7.13;;
7683;SDS011;3884;48.616;12.872;2023-08-24T06:07:57;8.00;;;7.20;;
7683;SDS011;3884;48.616;12.872;2023-08-24T06:10:24;8.77;;;7.37;;
7683;SDS011;3884;48.616;12.872;2023-08-24T06:12:51;7.93;;;7.10;;
7683;SDS011;3884;48.616;12.872;2023-08-24T06:15:18;7.53;;;6.83;;
7683;SDS011;3884;48.616;12.872;2023-08-24T06:17:48;8.07;;;7.37;;
7683;SDS011;3884;48.616;12.872;2023-08-24T06:20:17;8.20;;;7.50;;
7683;SDS011;3884;48.616;12.872;2023-08-24T06:22:45;8.03;;;7.33;;
7683;SDS011;3884;48.616;12.872;2023-08-24T06:25:12;8.63;;;7.83;;
7683;SDS011;3884;48.616;12.872;2023-08-24T06:27:39;9.37;;;8.27;;
7683;SDS011;3884;48.616;12.872;2023-08-24T06:30:06;9.63;;;8.67;;
7683;SDS011;3884;48.616;12.872;2023-08-24T06:32:33;10.53;;;9.00;;
7683;SDS011;3884;48.616;12.872;2023-08-24T06:35:01;11.43;;;8.13;;
7683;SDS011;3884;48.616;12.872;2023-08-24T06:37:30;11.17;;;9.27;;
7683;SDS011;3884;48.616;12.872;2023-08-24T06:39:56;10.03;;;8.73;;
7683;SDS011;3884;48.616;12.872;2023-08-24T06:42:23;9.40;;;8.17;;
7683;SDS011;3884;48.616;12.872;2023-08-24T06:44:50;9.33;;;8.47;;
7683;SDS011;3884;48.616;12.872;2023-08-24T06:47:17;8.93;;;7.97;;
7683;SDS011;3884;48.616;12.872;2023-08-24T06:49:44;9.23;;;8.30;;
7683;SDS011;3884;48.616;12.872;2023-08-24T06:52:10;10.83;;;8.60;;
7683;SDS011;3884;48.616;12.872;2023-08-24T06:54:39;9.77;;;8.87;;
7683;SDS011;3884;48.616;12.872;2023-08-24T06:57:05;9.47;;;8.57;;
7683;SDS011;3884;48.616;12.872;2023-08-24T06:59:32;10.93;;;9.20;;
7683;SDS011;3884;48.616;12.872;2023-08-24T07:01:59;11.23;;;9.17;;
7683;SDS011;3884;48.616;12.872;2023-08-24T07:04:26;9.50;;;8.60;;
7683;SDS011;3884;48.616;12.872;2023-08-24T07:06:53;12.53;;;8.70;;
7683;SDS011;3884;48.616;12.872;2023-08-24T07:09:20;9.60;;;8.63;;
7683;SDS011;3884;48.616;12.872;2023-08-24T07:11:48;10.57;;;8.90;;
7683;SDS011;3884;48.616;12.872;2023-08-24T07:14:15;10.70;;;8.57;;
7683;SDS011;3884;48.616;12.872;2023-08-24T07:16:42;9.90;;;8.50;;
7683;SDS011;3884;48.616;12.872;2023-08-24T07:19:09;11.43;;;8.70;;
7683;SDS011;3884;48.616;12.872;2023-08-24T07:21:36;10.13;;;8.30;;
7683;SDS011;3884;48.616;12.872;2023-08-24T07:24:03;9.03;;;8.07;;
7683;SDS011;3884;48.616;12.872;2023-08-24T07:26:30;9.07;;;7.70;;
7683;SDS011;3884;48.616;12.872;2023-08-24T07:28:59;9.53;;;8.53;;
7683;SDS011;3884;48.616;12.872;2023-08-24T07:31:25;8.37;;;7.60;;
7683;SDS011;3884;48.616;12.872;2023-08-24T07:33:52;8.90;;;8.00;;
7683;SDS011;3884;48.616;12.872;2023-08-24T07:36:19;8.17;;;7.47;;
7683;SDS011;3884;48.616;12.872;2023-08-24T07:38:46;8.00;;;7.30;;
7683;SDS011;3884;48.616;12.872;2023-08-24T07:41:13;7.17;;;6.47;;
7683;SDS011;3884;48.616;12.872;2023-08-24T07:43:42;7.77;;;7.07;;
7683;SDS011;3884;48.616;12.872;2023-08-24T07:46:10;8.13;;;7.33;;
7683;SDS011;3884;48.616;12.872;2023-08-24T07:48:37;7.67;;;6.97;;
7683;SDS011;3884;48.616;12.872;2023-08-24T07:51:04;8.40;;;7.50;;
7683;SDS011;3884;48.616;12.872;2023-08-24T07:53:31;9.67;;;6.97;;
7683;SDS011;3884;48.616;12.872;2023-08-24T07:55:59;9.57;;;6.87;;
7683;SDS011;3884;48.616;12.872;2023-08-24T07:58:27;8.40;;;6.77;;
7683;SDS011;3884;48.616;12.872;2023-08-24T08:00:53;6.73;;;6.13;;
7683;SDS011;3884;48.616;12.872;2023-08-24T08:03:21;7.73;;;6.90;;
7683;SDS011;3884;48.616;12.872;2023-08-24T08:05:48;7.17;;;6.50;;
7683;SDS011;3884;48.616;12.872;2023-08-24T08:08:15;7.77;;;5.90;;
7683;SDS011;3884;48.616;12.872;2023-08-24T08:10:42;6.23;;;5.73;;
7683;SDS011;3884;48.616;12.872;2023-08-24T08:13:09;10.37;;;6.40;;
7683;SDS011;3884;48.616;12.872;2023-08-24T08:15:37;6.90;;;6.20;;
7683;SDS011;3884;48.616;12.872;2023-08-24T08:18:04;6.63;;;5.73;;
7683;SDS011;3884;48.616;12.872;2023-08-24T08:20:32;6.60;;;5.70;;
7683;SDS011;3884;48.616;12.872;2023-08-24T08:22:59;8.87;;;6.17;;
7683;SDS011;3884;48.616;12.872;2023-08-24T08:25:26;7.73;;;6.13;;
7683;SDS011;3884;48.616;12.872;2023-08-24T08:27:53;10.47;;;5.93;;
7683;SDS011;3884;48.616;12.872;2023-08-24T08:30:20;6.27;;;5.37;;
7683;SDS011;3884;48.616;12.872;2023-08-24T08:32:47;5.73;;;5.13;;
7683;SDS011;3884;48.616;12.872;2023-08-24T08:35:16;5.67;;;5.17;;
7683;SDS011;3884;48.616;12.872;2023-08-24T08:37:44;6.07;;;4.90;;
7683;SDS011;3884;48.616;12.872;2023-08-24T08:40:14;5.30;;;4.80;;
7683;SDS011;3884;48.616;12.872;2023-08-24T08:42:43;5.60;;;5.00;;
7683;SDS011;3884;48.616;12.872;2023-08-24T08:45:10;6.33;;;5.00;;
7683;SDS011;3884;48.616;12.872;2023-08-24T08:47:37;5.20;;;4.73;;
7683;SDS011;3884;48.616;12.872;2023-08-24T08:50:06;4.87;;;4.40;;
7683;SDS011;3884;48.616;12.872;2023-08-24T08:52:34;4.33;;;3.90;;
7683;SDS011;3884;48.616;12.872;2023-08-24T08:55:02;4.20;;;3.80;;
7683;SDS011;3884;48.616;12.872;2023-08-24T08:57:31;4.77;;;3.50;;
7683;SDS011;3884;48.616;12.872;2023-08-24T08:59:59;4.40;;;3.37;;
7683;SDS011;3884;48.616;12.872;2023-08-24T09:02:26;6.30;;;3.63;;
7683;SDS011;3884;48.616;12.872;2023-08-24T09:04:55;6.17;;;4.20;;
7683;SDS011;3884;48.616;12.872;2023-08-24T09:07:23;4.40;;;3.80;;
7683;SDS011;3884;48.616;12.872;2023-08-24T09:09:50;5.00;;;3.90;;
7683;SDS011;3884;48.616;12.872;2023-08-24T09:12:18;4.33;;;3.93;;
7683;SDS011;3884;48.616;12.872;2023-08-24T09:14:45;5.03;;;4.30;;
7683;SDS011;3884;48.616;12.872;2023-08-24T09:17:19;6.93;;;3.97;;
7683;SDS011;3884;48.616;12.872;2023-08-24T09:19:46;5.27;;;3.63;;
7683;SDS011;3884;48.616;12.872;2023-08-24T09:22:16;5.40;;;3.33;;
7683;SDS011;3884;48.616;12.872;2023-08-24T09:24:43;7.50;;;3.90;;
7683;SDS011;3884;48.616;12.872;2023-08-24T09:27:14;5.17;;;3.90;;
7683;SDS011;3884;48.616;12.872;2023-08-24T09:29:46;4.23;;;3.83;;
7683;SDS011;3884;48.616;12.872;2023-08-24T09:32:15;7.10;;;4.17;;
7683;SDS011;3884;48.616;12.872;2023-08-24T09:34:47;5.20;;;4.00;;
7683;SDS011;3884;48.616;12.872;2023-08-24T09:37:14;5.40;;;3.63;;
7683;SDS011;3884;48.616;12.872;2023-08-24T09:39:41;4.43;;;3.60;;
7683;SDS011;3884;48.616;12.872;2023-08-24T09:42:08;4.23;;;3.70;;
7683;SDS011;3884;48.616;12.872;2023-08-24T09:44:35;5.27;;;4.10;;
7683;SDS011;3884;48.616;12.872;2023-08-24T09:47:06;4.67;;;3.73;;
7683;SDS011;3884;48.616;12.872;2023-08-24T09:49:36;4.00;;;3.60;;
7683;SDS011;3884;48.616;12.872;2023-08-24T09:52:05;4.17;;;3.67;;
7683;SDS011;3884;48.616;12.872;2023-08-24T09:54:35;3.70;;;3.40;;
7683;SDS011;3884;48.616;12.872;2023-08-24T09:57:04;4.37;;;3.97;;
7683;SDS011;3884;48.616;12.872;2023-08-24T09:59:34;3.93;;;3.37;;
7683;SDS011;3884;48.616;12.872;2023-08-24T10:02:01;4.90;;;3.63;;
7683;SDS011;3884;48.616;12.872;2023-08-24T10:04:32;7.03;;;5.47;;
7683;SDS011;3884;48.616;12.872;2023-08-24T10:07:02;5.93;;;3.77;;
7683;SDS011;3884;48.616;12.872;2023-08-24T10:09:35;7.37;;;3.93;;
7683;SDS011;3884;48.616;12.872;2023-08-24T10:12:09;7.00;;;3.83;;
7683;SDS011;3884;48.616;12.872;2023-08-24T10:14:41;4.93;;;3.77;;
7683;SDS011;3884;48.616;12.872;2023-08-24T10:17:12;4.13;;;3.43;;
7683;SDS011;3884;48.616;12.872;2023-08-24T10:19:40;4.10;;;3.70;;
7683;SDS011;3884;48.616;12.872;2023-08-24T10:22:08;4.00;;;3.60;;
7683;SDS011;3884;48.616;12.872;2023-08-24T10:24:36;3.87;;;3.40;;
7683;SDS011;3884;48.616;12.872;2023-08-24T10:27:04;4.00;;;3.50;;
7683;SDS011;3884;48.616;12.872;2023-08-24T10:29:35;4.60;;;3.63;;
7683;SDS011;3884;48.616;12.872;2023-08-24T10:32:01;5.97;;;3.73;;
7683;SDS011;3884;48.616;12.872;2023-08-24T10:34:31;4.13;;;3.73;;
7683;SDS011;3884;48.616;12.872;2023-08-24T10:37:06;5.20;;;3.80;;
7683;SDS011;3884;48.616;12.872;2023-08-24T10:39:33;4.73;;;4.23;;
7683;SDS011;3884;48.616;12.872;2023-08-24T10:42:03;7.10;;;4.80;;
7683;SDS011;3884;48.616;12.872;2023-08-24T10:44:35;6.63;;;4.10;;
7683;SDS011;3884;48.616;12.872;2023-08-24T10:47:06;4.50;;;4.00;;
7683;SDS011;3884;48.616;12.872;2023-08-24T10:49:38;6.60;;;3.80;;
7683;SDS011;3884;48.616;12.872;2023-08-24T10:52:18;6.37;;;4.20;;
7683;SDS011;3884;48.616;12.872;2023-08-24T10:54:46;7.33;;;4.03;;
7683;SDS011;3884;48.616;12.872;2023-08-24T10:57:18;4.43;;;3.83;;
7683;SDS011;3884;48.616;12.872;2023-08-24T10:59:57;4.93;;;4.33;;
7683;SDS011;3884;48.616;12.872;2023-08-24T11:02:30;5.90;;;3.87;;
7683;SDS011;3884;48.616;12.872;2023-08-24T11:05:14;5.03;;;4.33;;
7683;SDS011;3884;48.616;12.872;2023-08-24T11:07:49;7.83;;;4.20;;
7683;SDS011;3884;48.616;12.872;2023-08-24T11:10:20;5.17;;;3.97;;
7683;SDS011;3884;48.616;12.872;2023-08-24T11:13:10;5.33;;;4.07;;
7683;SDS011;3884;48.616;12.872;2023-08-24T11:15:39;6.60;;;4.40;;
7683;SDS011;3884;48.616;12.872;2023-08-24T11:18:11;5.03;;;4.03;;
7683;SDS011;3884;48.616;12.872;2023-08-24T11:20:50;4.57;;;4.17;;
7683;SDS011;3884;48.616;12.872;2023-08-24T11:23:19;5.23;;;4.50;;
7683;SDS011;3884;48.616;12.872;2023-08-24T11:25:47;7.23;;;4.00;;
7683;SDS011;3884;48.616;12.872;2023-08-24T11:28:17;9.83;;;4.07;;
7683;SDS011;3884;48.616;12.872;2023-08-24T11:30:45;5.13;;;3.90;;
7683;SDS011;3884;48.616;12.872;2023-08-24T11:33:12;4.63;;;4.00;;
7683;SDS011;3884;48.616;12.872;2023-08-24T11:35:41;5.83;;;4.30;;
7683;SDS011;3884;48.616;12.872;2023-08-24T11:38:10;5.73;;;4.50;;
7683;SDS011;3884;48.616;12.872;2023-08-24T11:40:38;6.63;;;4.47;;
7683;SDS011;3884;48.616;12.872;2023-08-24T11:43:05;8.17;;;4.53;;
7683;SDS011;3884;48.616;12.872;2023-08-24T11:45:32;5.67;;;4.00;;
7683;SDS011;3884;48.616;12.872;2023-08-24T11:48:01;4.67;;;4.27;;
7683;SDS011;3884;48.616;12.872;2023-08-24T11:50:30;5.07;;;4.57;;
7683;SDS011;3884;48.616;12.872;2023-08-24T11:52:57;6.53;;;4.63;;
7683;SDS011;3884;48.616;12.872;2023-08-24T11:55:26;7.30;;;5.00;;
7683;SDS011;3884;48.616;12.872;2023-08-24T11:57:53;5.33;;;4.83;;
7683;SDS011;3884;48.616;12.872;2023-08-24T12:00:21;5.77;;;4.80;;
7683;SDS011;3884;48.616;12.872;2023-08-24T12:02:49;6.93;;;4.80;;
7683;SDS011;3884;48.616;12.872;2023-08-24T12:05:22;6.60;;;5.33;;
7683;SDS011;3884;48.616;12.872;2023-08-24T12:07:51;11.10;;;5.80;;
7683;SDS011;3884;48.616;12.872;2023-08-24T12:10:19;5.30;;;4.80;;
7683;SDS011;3884;48.616;12.872;2023-08-24T12:12:47;5.63;;;4.70;;
7683;SDS011;3884;48.616;12.872;2023-08-24T12:15:15;5.37;;;4.87;;
7683;SDS011;3884;48.616;12.872;2023-08-24T12:17:45;8.50;;;4.60;;
7683;SDS011;3884;48.616;12.872;2023-08-24T12:20:17;5.13;;;4.63;;
7683;SDS011;3884;48.616;12.872;2023-08-24T12:22:49;5.30;;;4.80;;
7683;SDS011;3884;48.616;12.872;2023-08-24T12:25:23;5.13;;;4.60;;
7683;SDS011;3884;48.616;12.872;2023-08-24T12:27:52;6.00;;;5.40;;
7683;SDS011;3884;48.616;12.872;2023-08-24T12:30:42;5.30;;;4.80;;
7683;SDS011;3884;48.616;12.872;2023-08-24T12:33:20;5.27;;;4.73;;
7683;SDS011;3884;48.616;12.872;2023-08-24T12:35:47;4.83;;;4.40;;
7683;SDS011;3884;48.616;12.872;2023-08-24T12:38:17;5.53;;;4.73;;
7683;SDS011;3884;48.616;12.872;2023-08-24T12:40:44;5.40;;;4.90;;
7683;SDS011;3884;48.616;12.872;2023-08-24T12:43:12;7.53;;;5.23;;
7683;SDS011;3884;48.616;12.872;2023-08-24T12:45:39;5.77;;;4.80;;
7683;SDS011;3884;48.616;12.872;2023-08-24T12:48:07;6.37;;;4.80;;
7683;SDS011;3884;48.616;12.872;2023-08-24T12:50:34;7.63;;;4.80;;
7683;SDS011;3884;48.616;12.872;2023-08-24T12:53:01;5.40;;;4.90;;
7683;SDS011;3884;48.616;12.872;2023-08-24T12:55:31;7.57;;;4.57;;
7683;SDS011;3884;48.616;12.872;2023-08-24T12:57:58;5.57;;;4.73;;
7683;SDS011;3884;48.616;12.872;2023-08-24T13:00:26;5.70;;;5.20;;
7683;SDS011;3884;48.616;12.872;2023-08-24T13:02:53;5.83;;;4.83;;
7683;SDS011;3884;48.616;12.872;2023-08-24T13:05:20;5.90;;;5.13;;
7683;SDS011;3884;48.616;12.872;2023-08-24T13:07:47;6.40;;;4.77;;
7683;SDS011;3884;48.616;12.872;2023-08-24T13:10:16;7.13;;;5.00;;
7683;SDS011;3884;48.616;12.872;2023-08-24T13:12:43;5.00;;;4.50;;
7683;SDS011;3884;48.616;12.872;2023-08-24T13:15:10;5.73;;;4.63;;
7683;SDS011;3884;48.616;12.872;2023-08-24T13:17:38;7.43;;;4.50;;
7683;SDS011;3884;48.616;12.872;2023-08-24T13:20:06;7.20;;;4.57;;
7683;SDS011;3884;48.616;12.872;2023-08-24T13:22:33;6.33;;;5.20;;
7683;SDS011;3884;48.616;12.872;2023-08-24T13:25:00;5.47;;;4.60;;
7683;SDS011;3884;48.616;12.872;2023-08-24T13:27:27;5.30;;;4.80;;
7683;SDS011;3884;48.616;12.872;2023-08-24T13:29:56;5.50;;;4.73;;
7683;SDS011;3884;48.616;12.872;2023-08-24T13:32:26;7.83;;;4.97;;
7683;SDS011;3884;48.616;12.872;2023-08-24T13:34:54;5.90;;;5.30;;
7683;SDS011;3884;48.616;12.872;2023-08-24T13:37:21;7.10;;;4.97;;
7683;SDS011;3884;48.616;12.872;2023-08-24T13:39:49;10.17;;;5.20;;
7683;SDS011;3884;48.616;12.872;2023-08-24T13:42:16;8.83;;;4.90;;
7683;SDS011;3884;48.616;12.872;2023-08-24T13:44:43;6.13;;;4.80;;
7683;SDS011;3884;48.616;12.872;2023-08-24T13:47:10;5.73;;;4.50;;
7683;SDS011;3884;48.616;12.872;2023-08-24T13:49:37;7.13;;;4.80;;
7683;SDS011;3884;48.616;12.872;2023-08-24T13:52:05;6.10;;;4.77;;
7683;SDS011;3884;48.616;12.872;2023-08-24T13:54:33;5.33;;;4.80;;
7683;SDS011;3884;48.616;12.872;2023-08-24T13:57:00;5.97;;;5.37;;
7683;SDS011;3884;48.616;12.872;2023-08-24T13:59:27;5.77;;;4.80;;
7683;SDS011;3884;48.616;12.872;2023-08-24T14:01:54;6.63;;;4.40;;
7683;SDS011;3884;48.616;12.872;2023-08-24T14:04:21;9.10;;;4.97;;
7683;SDS011;3884;48.616;12.872;2023-08-24T14:06:48;6.30;;;4.67;;
7683;SDS011;3884;48.616;12.872;2023-08-24T14:09:17;6.73;;;4.87;;
7683;SDS011;3884;48.616;12.872;2023-08-24T14:11:43;5.73;;;4.90;;
7683;SDS011;3884;48.616;12.872;2023-08-24T14:14:12;8.17;;;5.43;;
7683;SDS011;3884;48.616;12.872;2023-08-24T14:16:38;6.73;;;5.53;;
7683;SDS011;3884;48.616;12.872;2023-08-24T14:19:05;5.53;;;4.70;;
7683;SDS011;3884;48.616;12.872;2023-08-24T14:21:32;7.97;;;5.07;;
7683;SDS011;3884;48.616;12.872;2023-08-24T14:23:59;6.63;;;5.40;;
7683;SDS011;3884;48.616;12.872;2023-08-24T14:26:27;6.03;;;5.00;;
7683;SDS011;3884;48.616;12.872;2023-08-24T14:28:55;7.53;;;5.50;;
7683;SDS011;3884;48.616;12.872;2023-08-24T14:31:24;5.90;;;5.40;;
7683;SDS011;3884;48.616;12.872;2023-08-24T14:33:51;6.77;;;4.70;;
7683;SDS011;3884;48.616;12.872;2023-08-24T14:36:19;7.67;;;5.20;;
7683;SDS011;3884;48.616;12.872;2023-08-24T14:38:46;6.03;;;5.37;;
7683;SDS011;3884;48.616;12.872;2023-08-24T14:41:16;6.60;;;5.20;;
7683;SDS011;3884;48.616;12.872;2023-08-24T14:43:45;8.50;;;5.83;;
7683;SDS011;3884;48.616;12.872;2023-08-24T14:46:13;6.50;;;5.47;;
7683;SDS011;3884;48.616;12.872;2023-08-24T14:48:40;5.70;;;5.10;;
7683;SDS011;3884;48.616;12.872;2023-08-24T14:51:07;11.03;;;6.13;;
7683;SDS011;3884;48.616;12.872;2023-08-24T14:53:34;7.17;;;5.70;;
7683;SDS011;3884;48.616;12.872;2023-08-24T14:56:00;6.57;;;5.80;;
7683;SDS011;3884;48.616;12.872;2023-08-24T14:58:27;8.27;;;6.13;;
7683;SDS011;3884;48.616;12.872;2023-08-24T15:00:56;7.60;;;5.80;;
7683;SDS011;3884;48.616;12.872;2023-08-24T15:03:24;6.13;;;5.33;;
7683;SDS011;3884;48.616;12.872;2023-08-24T15:05:58;6.80;;;6.10;;